createdAt,value
2019-03-25T00:02:05.029Z,37.00
2019-03-25T00:04:37.497Z,33.47
2019-03-25T00:07:09.884Z,34.27
2019-03-25T00:09:42.367Z,37.60
2019-03-25T00:12:14.750Z,38.67
2019-03-25T00:14:47.136Z,36.47
2019-03-25T00:17:19.528Z,40.87
2019-03-25T00:19:51.913Z,39.77
2019-03-25T00:22:24.282Z,42.83
2019-03-25T00:24:56.737Z,39.40
2019-03-25T00:27:29.092Z,40.03
2019-03-25T00:30:01.502Z,43.23
2019-03-25T00:32:33.984Z,42.40
2019-03-25T00:35:06.443Z,41.37
2019-03-25T00:37:38.856Z,40.60
2019-03-25T00:40:11.295Z,37.13
2019-03-25T00:42:43.710Z,36.27
2019-03-25T00:45:16.128Z,37.30
2019-03-25T00:47:48.616Z,35.13
2019-03-25T00:50:20.996Z,39.00
2019-03-25T00:52:53.384Z,33.27
2019-03-25T00:55:25.792Z,35.77
2019-03-25T00:57:58.190Z,31.17
2019-03-25T01:00:30.653Z,29.10
2019-03-25T01:03:03.029Z,27.20
2019-03-25T01:05:35.408Z,31.50
2019-03-25T01:08:07.835Z,25.93
2019-03-25T01:10:40.209Z,29.00
2019-03-25T01:13:12.617Z,30.13
2019-03-25T01:15:45.017Z,29.17
2019-03-25T01:18:17.600Z,29.77
2019-03-25T01:20:49.998Z,27.60
2019-03-25T01:23:22.403Z,29.50
2019-03-25T01:25:54.863Z,26.27
2019-03-25T01:28:27.261Z,27.80
2019-03-25T01:30:59.649Z,23.87
2019-03-25T01:33:32.040Z,26.60
2019-03-25T01:36:04.423Z,23.10
2019-03-25T01:38:36.832Z,24.50
2019-03-25T01:41:09.226Z,23.07
2019-03-25T01:43:41.647Z,25.83
2019-03-25T01:46:14.064Z,22.57
2019-03-25T01:48:46.473Z,20.67
2019-03-25T01:51:18.859Z,23.87
2019-03-25T01:53:51.278Z,23.33
2019-03-25T01:56:23.707Z,22.57
2019-03-25T01:58:56.135Z,20.60
2019-03-25T02:01:28.518Z,24.00
2019-03-25T02:04:01.199Z,19.33
2019-03-25T02:06:33.591Z,19.07
2019-03-25T02:09:07.878Z,20.80
2019-03-25T02:11:40.258Z,19.27
2019-03-25T02:14:12.712Z,17.83
2019-03-25T02:16:46.064Z,18.47
2019-03-25T02:19:18.448Z,17.13
2019-03-25T02:21:50.806Z,18.03
2019-03-25T02:24:23.242Z,20.73
2019-03-25T02:26:55.726Z,16.33
2019-03-25T02:29:28.119Z,16.87
2019-03-25T02:32:00.518Z,16.23
2019-03-25T02:34:32.916Z,14.30
2019-03-25T02:37:05.376Z,15.40
2019-03-25T02:39:37.807Z,13.63
2019-03-25T02:42:10.177Z,19.07
2019-03-25T02:44:42.589Z,15.87
2019-03-25T02:47:14.992Z,17.80
2019-03-25T02:49:47.373Z,16.73
2019-03-25T02:52:19.766Z,14.83
2019-03-25T02:54:52.133Z,14.93
2019-03-25T02:57:24.616Z,14.23
2019-03-25T02:59:56.993Z,15.03
2019-03-25T03:02:29.361Z,11.37
2019-03-25T03:05:01.740Z,14.10
2019-03-25T03:07:34.141Z,9.50
2019-03-25T03:10:07.272Z,12.30
2019-03-25T03:12:39.692Z,13.13
2019-03-25T03:15:12.067Z,11.97
2019-03-25T03:17:44.459Z,14.23
2019-03-25T03:20:16.816Z,14.30
2019-03-25T03:22:49.204Z,15.20
2019-03-25T03:25:21.589Z,8.93
2019-03-25T03:27:53.951Z,10.83
2019-03-25T03:30:26.350Z,15.63
2019-03-25T03:32:58.730Z,10.53
2019-03-25T03:35:31.086Z,13.43
2019-03-25T03:38:03.448Z,13.37
2019-03-25T03:40:35.883Z,10.30
2019-03-25T03:43:08.417Z,11.10
2019-03-25T03:45:40.784Z,16.70
2019-03-25T03:48:13.173Z,14.53
2019-03-25T03:50:45.860Z,13.97
2019-03-25T03:53:18.462Z,11.33
2019-03-25T03:55:52.513Z,16.70
2019-03-25T03:58:27.355Z,12.10
2019-03-25T04:00:59.733Z,11.40
2019-03-25T04:03:32.421Z,13.80
2019-03-25T04:06:04.782Z,13.00
2019-03-25T04:08:37.172Z,9.27
2019-03-25T04:11:09.615Z,11.70
2019-03-25T04:13:45.304Z,12.60
2019-03-25T04:16:17.807Z,13.00
2019-03-25T04:18:50.242Z,13.20
2019-03-25T04:21:22.628Z,14.20
2019-03-25T04:23:55.020Z,10.50
2019-03-25T04:26:29.299Z,13.93
2019-03-25T04:29:01.489Z,16.93
2019-03-25T04:31:33.871Z,16.13
2019-03-25T04:34:06.231Z,11.57
2019-03-25T04:36:38.631Z,12.33
2019-03-25T04:39:10.983Z,12.73
2019-03-25T04:41:43.374Z,11.80
2019-03-25T04:44:15.919Z,17.10
2019-03-25T04:46:48.293Z,13.37
2019-03-25T04:49:20.648Z,14.77
2019-03-25T04:51:53.033Z,12.90
2019-03-25T04:54:25.376Z,14.20
2019-03-25T04:56:57.772Z,12.60
2019-03-25T04:59:30.131Z,14.53
2019-03-25T05:02:02.526Z,14.53
2019-03-25T05:04:34.941Z,19.93
2019-03-25T05:07:07.304Z,15.27
2019-03-25T05:09:39.680Z,16.83
2019-03-25T05:12:12.172Z,15.40
2019-03-25T05:14:44.535Z,18.33
2019-03-25T05:17:17.991Z,16.13
2019-03-25T05:19:50.361Z,12.87
2019-03-25T05:22:22.762Z,13.10
2019-03-25T05:24:55.158Z,15.53
2019-03-25T05:27:27.565Z,16.00
2019-03-25T05:29:59.931Z,13.13
2019-03-25T05:32:32.325Z,16.90
2019-03-25T05:35:04.738Z,13.87
2019-03-25T05:37:37.106Z,11.93
2019-03-25T05:40:09.901Z,17.07
2019-03-25T05:42:42.499Z,18.07
2019-03-25T05:45:14.896Z,17.37
2019-03-25T05:47:47.289Z,13.13
2019-03-25T05:50:19.677Z,16.43
2019-03-25T05:52:53.020Z,15.57
2019-03-25T05:55:25.386Z,16.10
2019-03-25T05:57:58.086Z,13.00
2019-03-25T06:00:33.507Z,15.60
2019-03-25T06:03:05.897Z,19.43
2019-03-25T06:05:38.267Z,14.70
2019-03-25T06:08:10.692Z,16.63
2019-03-25T06:10:43.097Z,13.93
2019-03-25T06:13:15.610Z,24.37
2019-03-25T06:15:47.986Z,16.17
2019-03-25T06:18:20.592Z,18.07
2019-03-25T06:20:52.957Z,14.40
2019-03-25T06:23:25.449Z,16.83
2019-03-25T06:25:57.813Z,13.20
2019-03-25T06:28:30.209Z,14.00
2019-03-25T06:31:02.617Z,19.47
2019-03-25T06:33:36.220Z,17.40
2019-03-25T06:36:08.616Z,16.30
2019-03-25T06:38:41.022Z,16.43
2019-03-25T06:41:13.435Z,17.77
2019-03-25T06:43:45.923Z,16.47
2019-03-25T06:46:18.353Z,16.00
2019-03-25T06:48:50.774Z,14.47
2019-03-25T06:51:23.177Z,15.97
2019-03-25T06:53:55.581Z,17.23
2019-03-25T06:56:27.986Z,15.70
2019-03-25T06:59:00.366Z,19.03
2019-03-25T07:01:32.734Z,12.80
2019-03-25T07:04:05.300Z,18.03
2019-03-25T07:06:37.871Z,13.63
2019-03-25T07:09:10.550Z,14.20
2019-03-25T07:11:43.456Z,11.80
2019-03-25T07:14:15.871Z,14.17
2019-03-25T07:16:48.274Z,15.47
2019-03-25T07:19:20.674Z,13.40
2019-03-25T07:21:53.067Z,14.17
2019-03-25T07:24:25.471Z,16.23
2019-03-25T07:26:57.876Z,15.00
2019-03-25T07:29:31.313Z,15.00
2019-03-25T07:32:03.716Z,13.30
2019-03-25T07:34:36.142Z,10.83
2019-03-25T07:37:08.561Z,13.60
2019-03-25T07:39:40.943Z,16.07
2019-03-25T07:42:13.386Z,13.17
2019-03-25T07:44:45.790Z,15.20
2019-03-25T07:47:18.195Z,12.10
2019-03-25T07:49:50.554Z,14.50
2019-03-25T07:52:22.960Z,14.00
2019-03-25T07:54:55.372Z,12.63
2019-03-25T07:57:27.880Z,14.17
2019-03-25T08:00:00.396Z,11.90
2019-03-25T08:02:32.857Z,13.60
2019-03-25T08:05:05.584Z,15.20
2019-03-25T08:07:38.012Z,18.67
2019-03-25T08:10:10.874Z,16.50
2019-03-25T08:12:43.307Z,13.70
2019-03-25T08:15:15.694Z,11.67
2019-03-25T08:17:48.153Z,16.43
2019-03-25T08:20:20.556Z,16.13
2019-03-25T08:22:52.923Z,14.10
2019-03-25T08:25:26.463Z,15.93
2019-03-25T08:28:00.172Z,16.63
2019-03-25T08:30:34.136Z,12.87
2019-03-25T08:33:06.515Z,15.67
2019-03-25T08:35:38.905Z,16.90
2019-03-25T08:38:11.288Z,13.40
2019-03-25T08:40:43.695Z,15.70
2019-03-25T08:43:17.761Z,12.30
2019-03-25T08:45:50.236Z,13.20
2019-03-25T08:48:22.617Z,12.20
2019-03-25T08:50:55.053Z,12.10
2019-03-25T08:53:27.409Z,13.13
2019-03-25T08:55:59.808Z,13.60
2019-03-25T08:58:32.218Z,14.03
2019-03-25T09:01:04.586Z,11.60
2019-03-25T09:03:38.089Z,10.10
2019-03-25T09:06:10.533Z,12.87
2019-03-25T09:08:42.919Z,12.50
2019-03-25T09:11:15.346Z,13.00
2019-03-25T09:13:47.776Z,10.87
2019-03-25T09:16:20.165Z,11.73
2019-03-25T09:18:53.634Z,12.03
2019-03-25T09:21:26.010Z,12.83
2019-03-25T09:23:59.019Z,10.67
2019-03-25T09:26:31.370Z,12.70
2019-03-25T09:29:03.783Z,9.73
2019-03-25T09:31:37.176Z,10.33
2019-03-25T09:34:09.651Z,10.00
2019-03-25T09:36:42.149Z,9.60
2019-03-25T09:39:14.564Z,8.93
2019-03-25T09:41:46.967Z,10.10
2019-03-25T09:44:19.374Z,9.83
2019-03-25T09:46:51.749Z,10.67
2019-03-25T09:49:24.176Z,11.73
2019-03-25T09:51:56.654Z,17.43
2019-03-25T09:54:29.041Z,8.50
2019-03-25T09:57:01.403Z,12.97
2019-03-25T09:59:33.795Z,11.83
2019-03-25T10:02:06.181Z,9.53
2019-03-25T10:04:39.649Z,10.23
2019-03-25T10:07:28.258Z,14.00
2019-03-25T10:10:00.331Z,14.53
2019-03-25T10:12:32.778Z,12.17
2019-03-25T10:15:06.592Z,10.73
2019-03-25T10:17:39.002Z,11.03
2019-03-25T10:20:11.752Z,10.07
2019-03-25T10:22:44.137Z,11.20
2019-03-25T10:25:16.896Z,9.53
2019-03-25T10:27:49.261Z,14.53
2019-03-25T10:30:21.700Z,10.90
2019-03-25T10:32:54.146Z,13.17
2019-03-25T10:35:26.536Z,11.23
2019-03-25T10:37:58.914Z,11.17
2019-03-25T10:40:31.283Z,12.77
2019-03-25T10:43:03.663Z,8.67
2019-03-25T10:45:36.078Z,10.00
2019-03-25T10:48:08.478Z,9.67
2019-03-25T10:50:40.854Z,11.03
2019-03-25T10:53:13.698Z,12.80
2019-03-25T10:55:46.095Z,10.50
2019-03-25T10:58:18.463Z,8.67
2019-03-25T11:00:50.883Z,14.97
2019-03-25T11:03:23.282Z,11.80
2019-03-25T11:05:55.763Z,10.20
2019-03-25T11:08:28.175Z,10.90
2019-03-25T11:11:00.599Z,11.40
2019-03-25T11:13:33.008Z,11.17
2019-03-25T11:16:05.389Z,10.70
2019-03-25T11:18:37.790Z,8.83
2019-03-25T11:21:10.170Z,12.73
2019-03-25T11:23:42.607Z,10.87
2019-03-25T11:26:14.976Z,9.23
2019-03-25T11:28:47.360Z,13.70
2019-03-25T11:31:19.811Z,11.33
2019-03-25T11:33:52.165Z,7.50
2019-03-25T11:36:24.586Z,8.47
2019-03-25T11:38:57.282Z,10.00
2019-03-25T11:41:29.886Z,7.60
2019-03-25T11:44:02.277Z,7.13
2019-03-25T11:46:34.712Z,8.20
2019-03-25T11:49:07.166Z,6.93
2019-03-25T11:51:39.591Z,6.17
2019-03-25T11:54:11.959Z,6.30
2019-03-25T11:56:44.457Z,8.57
2019-03-25T11:59:18.878Z,6.10
2019-03-25T12:01:50.937Z,8.20
2019-03-25T12:04:23.378Z,8.47
2019-03-25T12:06:55.786Z,8.60
2019-03-25T12:09:28.174Z,7.97
2019-03-25T12:12:00.676Z,7.57
2019-03-25T12:14:33.154Z,8.87
2019-03-25T12:17:05.636Z,6.73
2019-03-25T12:19:38.046Z,9.37
2019-03-25T12:22:10.415Z,7.53
2019-03-25T12:24:42.800Z,5.47
2019-03-25T12:27:15.425Z,5.90
2019-03-25T12:29:47.766Z,6.70
2019-03-25T12:32:20.164Z,6.10
2019-03-25T12:34:52.550Z,5.70
2019-03-25T12:37:24.973Z,5.77
2019-03-25T12:39:57.390Z,3.90
2019-03-25T12:42:29.844Z,4.10
2019-03-25T12:45:02.186Z,6.67
2019-03-25T12:47:35.626Z,4.17
2019-03-25T12:50:09.368Z,7.10
2019-03-25T12:52:42.019Z,5.78
2019-03-25T12:55:14.553Z,6.10
2019-03-25T12:57:46.969Z,5.13
2019-03-25T13:00:40.370Z,5.83
2019-03-25T13:03:13.038Z,4.40
2019-03-25T13:05:45.434Z,3.43
2019-03-25T13:08:17.849Z,5.23
2019-03-25T13:10:50.477Z,5.33
2019-03-25T13:13:22.974Z,4.60
2019-03-25T13:15:55.334Z,4.73
2019-03-25T13:18:27.921Z,4.80
2019-03-25T13:21:00.336Z,6.50
2019-03-25T13:23:32.928Z,4.13
2019-03-25T13:26:05.757Z,4.77
2019-03-25T13:28:38.116Z,7.00
2019-03-25T13:31:10.819Z,4.95
2019-03-25T13:33:43.309Z,4.57
2019-03-25T13:36:15.720Z,3.70
2019-03-25T13:38:48.157Z,4.80
2019-03-25T13:41:20.689Z,6.20
2019-03-25T13:43:53.075Z,6.73
2019-03-25T13:46:25.476Z,6.97
2019-03-25T13:48:57.819Z,4.80
2019-03-25T13:51:30.226Z,9.10
2019-03-25T13:54:02.709Z,6.93
2019-03-25T13:56:35.141Z,5.13
2019-03-25T13:59:07.527Z,5.23
2019-03-25T14:01:39.944Z,9.87
2019-03-25T14:04:12.371Z,3.43
2019-03-25T14:06:44.789Z,6.17
2019-03-25T14:09:17.219Z,4.80
2019-03-25T14:11:49.677Z,7.03
2019-03-25T14:14:22.120Z,3.70
2019-03-25T14:16:54.591Z,4.63
2019-03-25T14:19:29.179Z,5.70
2019-03-25T14:22:01.075Z,6.63
2019-03-25T14:24:33.475Z,7.20
2019-03-25T14:27:05.877Z,7.40
2019-03-25T14:29:38.262Z,7.53
2019-03-25T14:32:10.703Z,4.40
2019-03-25T14:34:44.961Z,3.60
2019-03-25T14:37:17.147Z,3.63
2019-03-25T14:39:49.485Z,7.67
2019-03-25T14:42:21.911Z,7.13
2019-03-25T14:44:54.399Z,3.40
2019-03-25T14:47:26.956Z,4.23
2019-03-25T14:49:59.329Z,3.57
2019-03-25T14:52:31.746Z,3.63
2019-03-25T14:55:04.124Z,5.03
2019-03-25T14:57:36.551Z,4.40
2019-03-25T15:00:10.460Z,4.23
2019-03-25T15:02:42.869Z,4.80
2019-03-25T15:05:15.850Z,4.47
2019-03-25T15:07:48.246Z,3.07
2019-03-25T15:10:20.766Z,4.33
2019-03-25T15:12:53.217Z,2.73
2019-03-25T15:15:25.715Z,2.80
2019-03-25T15:17:58.311Z,7.13
2019-03-25T15:20:30.703Z,3.30
2019-03-25T15:23:03.103Z,2.77
2019-03-25T15:25:35.567Z,4.43
2019-03-25T15:28:07.951Z,3.30
2019-03-25T15:30:40.453Z,6.50
2019-03-25T15:33:12.879Z,3.27
2019-03-25T15:35:45.352Z,4.37
2019-03-25T15:38:18.838Z,5.50
2019-03-25T15:40:51.266Z,3.50
2019-03-25T15:43:23.677Z,6.17
2019-03-25T15:45:56.066Z,4.60
2019-03-25T15:48:28.449Z,4.70
2019-03-25T15:51:00.904Z,7.30
2019-03-25T15:53:33.348Z,4.73
2019-03-25T15:56:05.893Z,3.57
2019-03-25T15:58:38.279Z,1.57
2019-03-25T16:01:10.676Z,4.00
2019-03-25T16:03:43.059Z,3.40
2019-03-25T16:06:15.546Z,5.20
2019-03-25T16:08:49.201Z,3.27
2019-03-25T16:11:21.715Z,3.70
2019-03-25T16:13:54.245Z,2.80
2019-03-25T16:16:26.727Z,3.27
2019-03-25T16:18:59.157Z,2.70
2019-03-25T16:21:31.539Z,4.47
2019-03-25T16:24:03.966Z,2.93
2019-03-25T16:26:36.353Z,2.90
2019-03-25T16:29:08.804Z,3.13
2019-03-25T16:31:41.232Z,2.57
2019-03-25T16:34:13.743Z,1.13
2019-03-25T16:36:46.133Z,1.87
2019-03-25T16:39:18.758Z,1.77
2019-03-25T16:41:51.116Z,1.40
2019-03-25T16:44:23.551Z,1.10
2019-03-25T16:46:55.918Z,3.00
2019-03-25T16:49:28.309Z,1.43
2019-03-25T16:52:00.703Z,5.83
2019-03-25T16:54:33.091Z,2.10
2019-03-25T16:57:05.573Z,2.83
2019-03-25T16:59:40.476Z,1.60
2019-03-25T17:02:12.089Z,2.87
2019-03-25T17:04:45.505Z,2.70
2019-03-25T17:07:17.919Z,1.70
2019-03-25T17:09:50.659Z,1.20
2019-03-25T17:12:23.096Z,1.10
2019-03-25T17:14:55.473Z,4.93
2019-03-25T17:17:27.884Z,3.03
2019-03-25T17:20:00.413Z,2.70
2019-03-25T17:22:32.817Z,3.40
2019-03-25T17:25:05.341Z,1.67
2019-03-25T17:27:38.088Z,2.80
2019-03-25T17:30:15.287Z,2.43
2019-03-25T17:32:47.722Z,2.30
2019-03-25T17:35:20.255Z,2.30
2019-03-25T17:37:52.676Z,2.73
2019-03-25T17:40:25.167Z,4.37
2019-03-25T17:42:57.666Z,4.67
2019-03-25T17:45:30.101Z,2.90
2019-03-25T17:48:02.656Z,3.10
2019-03-25T17:50:35.217Z,3.00
2019-03-25T17:53:07.588Z,23.63
2019-03-25T17:55:40.017Z,169.53
2019-03-25T17:58:12.431Z,131.37
2019-03-25T18:01:19.149Z,217.53
2019-03-25T18:03:51.563Z,58.83
2019-03-25T18:06:23.958Z,33.47
2019-03-25T18:08:56.352Z,36.70
2019-03-25T18:11:28.843Z,38.87
2019-03-25T18:14:01.385Z,14.20
2019-03-25T18:16:33.854Z,14.90
2019-03-25T18:19:06.642Z,12.00
2019-03-25T18:21:39.104Z,15.40
2019-03-25T18:24:11.505Z,8.50
2019-03-25T18:26:43.998Z,5.90
2019-03-25T18:29:17.163Z,6.93
2019-03-25T18:31:49.670Z,6.80
2019-03-25T18:34:22.101Z,15.63
2019-03-25T18:36:54.537Z,29.30
2019-03-25T18:39:26.914Z,31.37
2019-03-25T18:41:59.311Z,22.20
2019-03-25T18:44:31.723Z,12.13
2019-03-25T18:47:04.112Z,13.57
2019-03-25T18:49:36.521Z,11.30
2019-03-25T18:52:08.949Z,13.57
2019-03-25T18:54:41.350Z,7.70
2019-03-25T18:57:13.972Z,10.40
2019-03-25T18:59:46.375Z,9.40
2019-03-25T19:02:18.788Z,7.40
2019-03-25T19:04:52.227Z,6.10
2019-03-25T19:07:25.780Z,5.70
2019-03-25T19:09:58.289Z,7.43
2019-03-25T19:12:30.712Z,8.83
2019-03-25T19:15:03.193Z,12.03
2019-03-25T19:17:35.756Z,10.10
2019-03-25T19:20:08.188Z,9.40
2019-03-25T19:22:40.612Z,7.97
2019-03-25T19:25:13.028Z,9.57
2019-03-25T19:27:45.455Z,8.40
2019-03-25T19:30:18.837Z,12.30
2019-03-25T19:32:51.283Z,13.80
2019-03-25T19:35:23.687Z,10.40
2019-03-25T19:37:56.140Z,8.33
2019-03-25T19:40:28.565Z,7.13
2019-03-25T19:43:01.066Z,7.77
2019-03-25T19:45:33.604Z,7.23
2019-03-25T19:48:06.328Z,7.03
2019-03-25T19:50:38.839Z,7.63
2019-03-25T19:53:19.049Z,7.70
2019-03-25T19:55:45.362Z,19.00
2019-03-25T19:58:17.836Z,9.33
2019-03-25T20:00:50.272Z,11.23
2019-03-25T20:03:22.695Z,11.30
2019-03-25T20:05:55.091Z,13.20
2019-03-25T20:08:27.562Z,11.93
2019-03-25T20:10:59.957Z,7.20
2019-03-25T20:13:33.338Z,7.83
2019-03-25T20:16:05.715Z,6.53
2019-03-25T20:18:38.261Z,9.80
2019-03-25T20:21:10.704Z,6.77
2019-03-25T20:23:43.185Z,11.60
2019-03-25T20:26:15.568Z,6.70
2019-03-25T20:28:47.964Z,7.40
2019-03-25T20:31:20.384Z,8.27
2019-03-25T20:33:52.857Z,8.23
2019-03-25T20:36:25.452Z,7.60
2019-03-25T20:38:57.853Z,9.13
2019-03-25T20:41:30.419Z,8.03
2019-03-25T20:44:03.011Z,10.27
2019-03-25T20:46:35.442Z,10.87
2019-03-25T20:49:07.923Z,12.67
2019-03-25T20:51:40.430Z,20.27
2019-03-25T20:54:12.798Z,8.20
2019-03-25T20:56:46.289Z,8.20
2019-03-25T20:59:18.776Z,8.20
2019-03-25T21:01:51.203Z,9.50
2019-03-25T21:04:23.567Z,9.47
2019-03-25T21:06:55.987Z,9.47
2019-03-25T21:09:28.459Z,8.43
2019-03-25T21:12:00.879Z,6.70
2019-03-25T21:14:33.295Z,6.67
2019-03-25T21:17:05.751Z,7.47
2019-03-25T21:19:38.116Z,6.20
2019-03-25T21:22:10.648Z,8.23
2019-03-25T21:24:43.045Z,8.10
2019-03-25T21:27:16.562Z,9.20
2019-03-25T21:29:48.966Z,11.17
2019-03-25T21:32:21.493Z,9.87
2019-03-25T21:34:53.916Z,11.93
2019-03-25T21:37:26.342Z,11.43
2019-03-25T21:39:58.879Z,9.67
2019-03-25T21:42:31.251Z,10.07
2019-03-25T21:45:03.746Z,8.83
2019-03-25T21:47:36.322Z,10.50
2019-03-25T21:50:09.117Z,15.70
2019-03-25T21:52:41.591Z,11.77
2019-03-25T21:55:13.981Z,12.73
2019-03-25T21:57:46.511Z,13.20
2019-03-25T22:00:19.533Z,12.40
2019-03-25T22:02:51.947Z,13.30
2019-03-25T22:05:24.394Z,13.00
2019-03-25T22:07:56.785Z,11.87
2019-03-25T22:10:29.186Z,11.37
2019-03-25T22:13:01.556Z,10.50
2019-03-25T22:15:33.951Z,12.60
2019-03-25T22:18:06.340Z,12.43
2019-03-25T22:20:38.738Z,14.43
2019-03-25T22:23:11.135Z,14.17
2019-03-25T22:25:44.997Z,14.50
2019-03-25T22:28:17.381Z,14.17
2019-03-25T22:30:49.801Z,14.90
2019-03-25T22:33:26.024Z,15.20
2019-03-25T22:35:56.284Z,14.90
2019-03-25T22:38:28.657Z,15.10
2019-03-25T22:41:01.056Z,14.30
2019-03-25T22:43:33.452Z,15.00
2019-03-25T22:46:05.863Z,12.90
2019-03-25T22:48:38.243Z,14.00
2019-03-25T22:51:10.665Z,14.80
2019-03-25T22:53:43.031Z,9.80
2019-03-25T22:56:15.418Z,10.47
2019-03-25T22:58:47.853Z,13.00
2019-03-25T23:01:20.243Z,13.97
2019-03-25T23:03:52.651Z,15.20
2019-03-25T23:06:26.098Z,12.70
2019-03-25T23:08:59.464Z,18.20
2019-03-25T23:11:31.897Z,18.80
2019-03-25T23:14:04.451Z,17.17
2019-03-25T23:16:36.846Z,17.37
2019-03-25T23:19:09.226Z,15.87
2019-03-25T23:21:41.617Z,18.07
2019-03-25T23:24:14.030Z,16.37
2019-03-25T23:26:46.489Z,15.60
2019-03-25T23:29:18.985Z,17.27
2019-03-25T23:31:51.382Z,16.73
2019-03-25T23:34:23.818Z,15.73
2019-03-25T23:36:56.320Z,15.23
2019-03-25T23:39:28.680Z,15.30
2019-03-25T23:42:01.362Z,16.10
2019-03-25T23:44:33.726Z,17.27
2019-03-25T23:47:06.196Z,15.50
2019-03-25T23:49:38.567Z,15.47
2019-03-25T23:52:11.056Z,21.40
2019-03-25T23:54:43.415Z,22.30
2019-03-25T23:57:15.809Z,18.27
2019-03-25T23:59:48.161Z,21.60
